createdAt,value
2018-10-18T00:02:06.959Z,9.78
2018-10-18T00:04:35.702Z,9.66
2018-10-18T00:07:04.551Z,9.74
2018-10-18T00:09:33.199Z,9.67
2018-10-18T00:12:01.820Z,9.67
2018-10-18T00:14:30.540Z,9.72
2018-10-18T00:16:59.077Z,9.68
2018-10-18T00:19:27.685Z,9.55
2018-10-18T00:21:56.228Z,9.55
2018-10-18T00:24:24.788Z,9.65
2018-10-18T00:26:53.364Z,9.70
2018-10-18T00:29:21.989Z,9.65
2018-10-18T00:31:50.585Z,9.65
2018-10-18T00:34:19.093Z,9.78
2018-10-18T00:36:47.776Z,9.68
2018-10-18T00:39:16.399Z,9.67
2018-10-18T00:41:45.280Z,9.73
2018-10-18T00:44:13.996Z,9.79
2018-10-18T00:46:42.560Z,9.87
2018-10-18T00:49:11.148Z,9.97
2018-10-18T00:51:39.694Z,9.82
2018-10-18T00:54:08.744Z,9.86
2018-10-18T00:56:37.348Z,9.77
2018-10-18T00:59:05.956Z,9.76
2018-10-18T01:01:34.487Z,9.88
2018-10-18T01:04:03.161Z,9.89
2018-10-18T01:06:31.972Z,9.74
2018-10-18T01:09:00.528Z,9.73
2018-10-18T01:11:29.152Z,9.75
2018-10-18T01:13:57.982Z,9.64
2018-10-18T01:16:26.572Z,9.72
2018-10-18T01:18:55.085Z,9.69
2018-10-18T01:21:23.774Z,9.77
2018-10-18T01:23:52.628Z,9.73
2018-10-18T01:26:21.153Z,9.73
2018-10-18T01:28:49.979Z,9.66
2018-10-18T01:31:18.651Z,9.66
2018-10-18T01:33:47.225Z,9.46
2018-10-18T01:36:16.013Z,9.53
2018-10-18T01:38:44.519Z,9.58
2018-10-18T01:41:13.084Z,9.75
2018-10-18T01:43:41.838Z,9.53
2018-10-18T01:46:10.792Z,9.68
2018-10-18T01:48:39.345Z,9.67
2018-10-18T01:51:08.054Z,9.64
2018-10-18T01:53:36.732Z,9.64
2018-10-18T01:56:05.724Z,9.67
2018-10-18T01:58:34.452Z,9.62
2018-10-18T02:01:03.010Z,9.74
2018-10-18T02:03:31.588Z,9.70
2018-10-18T02:06:00.350Z,9.70
2018-10-18T02:08:29.040Z,9.67
2018-10-18T02:10:57.624Z,9.63
2018-10-18T02:13:26.338Z,9.68
2018-10-18T02:15:55.251Z,9.63
2018-10-18T02:18:24.185Z,9.69
2018-10-18T02:20:53.152Z,9.56
2018-10-18T02:23:21.689Z,9.56
2018-10-18T02:25:50.208Z,9.43
2018-10-18T02:28:18.895Z,9.53
2018-10-18T02:30:47.501Z,9.45
2018-10-18T02:33:16.097Z,9.44
2018-10-18T02:35:44.844Z,9.39
2018-10-18T02:38:13.421Z,9.43
2018-10-18T02:40:42.039Z,9.37
2018-10-18T02:43:10.881Z,9.30
2018-10-18T02:45:39.628Z,9.42
2018-10-18T02:48:08.245Z,9.42
2018-10-18T02:50:36.765Z,9.35
2018-10-18T02:53:05.485Z,9.38
2018-10-18T02:55:34.064Z,9.44
2018-10-18T02:58:02.710Z,9.37
2018-10-18T03:00:31.319Z,9.28
2018-10-18T03:02:59.908Z,9.29
2018-10-18T03:05:28.710Z,9.22
2018-10-18T03:07:57.483Z,9.23
2018-10-18T03:10:26.010Z,9.23
2018-10-18T03:12:54.708Z,9.20
2018-10-18T03:15:23.249Z,9.16
2018-10-18T03:17:51.866Z,9.05
2018-10-18T03:20:20.524Z,9.09
2018-10-18T03:22:49.161Z,9.14
2018-10-18T03:25:17.732Z,9.12
2018-10-18T03:27:46.412Z,9.14
2018-10-18T03:30:15.170Z,8.98
2018-10-18T03:32:43.617Z,8.94
2018-10-18T03:35:12.242Z,9.02
2018-10-18T03:37:41.037Z,9.19
2018-10-18T03:40:10.268Z,9.14
2018-10-18T03:42:38.860Z,9.06
2018-10-18T03:45:07.869Z,8.97
2018-10-18T03:47:36.413Z,9.08
2018-10-18T03:50:05.093Z,9.11
2018-10-18T03:52:33.736Z,9.10
2018-10-18T03:55:02.317Z,9.01
2018-10-18T03:57:30.969Z,8.90
2018-10-18T03:59:59.531Z,8.98
2018-10-18T04:02:28.121Z,9.05
2018-10-18T04:04:56.752Z,8.89
2018-10-18T04:07:25.372Z,8.85
2018-10-18T04:09:53.929Z,8.65
2018-10-18T04:12:22.631Z,8.78
2018-10-18T04:14:51.190Z,8.80
2018-10-18T04:17:19.813Z,8.74
2018-10-18T04:19:48.557Z,8.82
2018-10-18T04:22:17.145Z,8.74
2018-10-18T04:24:45.761Z,8.78
2018-10-18T04:27:14.628Z,8.89
2018-10-18T04:29:43.194Z,8.87
2018-10-18T04:32:11.752Z,8.95
2018-10-18T04:34:40.418Z,8.88
2018-10-18T04:37:09.065Z,8.82
2018-10-18T04:39:37.568Z,8.79
2018-10-18T04:42:06.568Z,8.73
2018-10-18T04:44:35.182Z,8.73
2018-10-18T04:47:03.789Z,8.67
2018-10-18T04:49:32.505Z,8.61
2018-10-18T04:52:01.229Z,8.60
2018-10-18T04:54:29.760Z,8.70
2018-10-18T04:56:58.560Z,8.64
2018-10-18T04:59:27.288Z,8.55
2018-10-18T05:01:55.849Z,8.70
2018-10-18T05:04:24.465Z,8.69
2018-10-18T05:06:53.076Z,8.74
2018-10-18T05:09:21.729Z,8.79
2018-10-18T05:11:50.372Z,8.73
2018-10-18T05:14:18.987Z,8.69
2018-10-18T05:16:47.678Z,8.58
2018-10-18T05:19:16.609Z,8.66
2018-10-18T05:21:45.250Z,8.61
2018-10-18T05:24:13.849Z,8.64
2018-10-18T05:26:42.600Z,8.59
2018-10-18T05:29:11.248Z,8.59
2018-10-18T05:31:39.856Z,8.73
2018-10-18T05:34:08.584Z,8.72
2018-10-18T05:36:37.133Z,8.78
2018-10-18T05:39:09.725Z,8.70
2018-10-18T05:41:38.319Z,8.66
2018-10-18T05:44:06.948Z,8.70
2018-10-18T05:46:35.691Z,8.60
2018-10-18T05:49:04.326Z,8.57
2018-10-18T05:51:32.840Z,8.58
2018-10-18T05:54:01.709Z,8.67
2018-10-18T05:56:30.188Z,8.77
2018-10-18T05:58:58.812Z,8.75
2018-10-18T06:01:27.373Z,8.51
2018-10-18T06:03:55.980Z,8.54
2018-10-18T06:06:24.800Z,8.54
2018-10-18T06:08:53.615Z,8.57
2018-10-18T06:11:27.760Z,8.60
2018-10-18T06:13:56.570Z,8.41
2018-10-18T06:16:26.152Z,8.45
2018-10-18T06:18:54.803Z,8.42
2018-10-18T06:21:24.299Z,8.55
2018-10-18T06:23:52.892Z,8.61
2018-10-18T06:26:21.660Z,8.75
2018-10-18T06:28:51.441Z,8.71
2018-10-18T06:31:19.973Z,8.78
2018-10-18T06:33:49.172Z,8.74
2018-10-18T06:36:17.716Z,8.89
2018-10-18T06:38:46.373Z,9.03
2018-10-18T06:41:15.005Z,9.18
2018-10-18T06:43:43.696Z,9.03
2018-10-18T06:46:13.916Z,9.24
2018-10-18T06:48:42.956Z,9.32
2018-10-18T06:51:11.952Z,9.44
2018-10-18T06:53:41.545Z,9.60
2018-10-18T06:56:10.274Z,9.72
2018-10-18T06:58:38.988Z,9.77
2018-10-18T07:01:07.576Z,9.87
2018-10-18T07:03:36.168Z,9.99
2018-10-18T07:06:05.092Z,10.08
2018-10-18T07:08:33.635Z,10.10
2018-10-18T07:11:02.432Z,10.30
2018-10-18T07:13:30.908Z,10.42
2018-10-18T07:15:59.628Z,10.47
2018-10-18T07:18:28.215Z,10.58
2018-10-18T07:20:56.872Z,10.64
2018-10-18T07:23:25.403Z,10.66
2018-10-18T07:25:54.152Z,10.81
2018-10-18T07:28:22.885Z,11.07
2018-10-18T07:30:51.494Z,11.02
2018-10-18T07:33:20.457Z,11.21
2018-10-18T07:35:49.072Z,11.39
2018-10-18T07:38:17.616Z,11.38
2018-10-18T07:40:46.448Z,11.50
2018-10-18T07:43:15.009Z,11.72
2018-10-18T07:45:43.760Z,11.79
2018-10-18T07:48:12.629Z,12.02
2018-10-18T07:50:41.321Z,12.15
2018-10-18T07:53:10.006Z,12.37
2018-10-18T07:55:38.527Z,12.48
2018-10-18T07:58:07.354Z,12.54
2018-10-18T08:00:36.128Z,12.68
2018-10-18T08:03:05.082Z,12.65
2018-10-18T08:05:33.717Z,12.82
2018-10-18T08:08:02.353Z,12.88
2018-10-18T08:10:31.028Z,13.20
2018-10-18T08:12:59.627Z,13.29
2018-10-18T08:15:28.198Z,13.44
2018-10-18T08:17:56.834Z,13.69
2018-10-18T08:20:25.440Z,14.18
2018-10-18T08:22:54.206Z,14.18
2018-10-18T08:25:22.829Z,14.44
2018-10-18T08:27:51.398Z,14.67
2018-10-18T08:30:20.001Z,14.88
2018-10-18T08:32:48.637Z,15.04
2018-10-18T08:35:17.282Z,15.16
2018-10-18T08:37:45.918Z,15.19
2018-10-18T08:40:14.619Z,15.33
2018-10-18T08:42:43.165Z,15.40
2018-10-18T08:45:12.492Z,15.59
2018-10-18T08:47:41.220Z,15.67
2018-10-18T08:50:11.690Z,15.73
2018-10-18T08:52:40.580Z,15.83
2018-10-18T08:55:11.985Z,15.86
2018-10-18T08:57:40.510Z,16.08
2018-10-18T09:00:10.702Z,16.08
2018-10-18T09:02:39.850Z,16.18
2018-10-18T09:05:09.072Z,16.33
2018-10-18T09:07:38.189Z,16.37
2018-10-18T09:10:07.952Z,16.57
2018-10-18T09:12:37.097Z,16.57
2018-10-18T09:15:07.173Z,16.75
2018-10-18T09:17:36.209Z,16.58
2018-10-18T09:20:05.353Z,16.70
2018-10-18T09:22:34.568Z,16.63
2018-10-18T09:25:03.301Z,16.91
2018-10-18T09:27:31.892Z,16.95
2018-10-18T09:30:00.500Z,16.99
2018-10-18T09:32:29.148Z,17.18
2018-10-18T09:34:57.876Z,17.01
2018-10-18T09:37:26.468Z,17.07
2018-10-18T09:39:55.125Z,17.26
2018-10-18T09:42:23.664Z,17.45
2018-10-18T09:44:52.415Z,17.52
2018-10-18T09:47:20.940Z,17.48
2018-10-18T09:49:49.605Z,17.71
2018-10-18T09:52:18.180Z,17.62
2018-10-18T09:54:46.809Z,17.48
2018-10-18T09:57:15.365Z,17.68
2018-10-18T09:59:44.430Z,17.50
2018-10-18T10:02:18.233Z,17.64
2018-10-18T10:04:46.869Z,17.75
2018-10-18T10:07:15.492Z,17.75
2018-10-18T10:09:43.984Z,17.52
2018-10-18T10:12:12.750Z,17.75
2018-10-18T10:14:41.488Z,17.72
2018-10-18T10:17:10.224Z,17.98
2018-10-18T10:19:38.761Z,18.16
2018-10-18T10:22:07.512Z,18.14
2018-10-18T10:24:36.100Z,18.16
2018-10-18T10:27:04.733Z,18.06
2018-10-18T10:29:33.304Z,18.13
2018-10-18T10:32:01.869Z,18.30
2018-10-18T10:34:30.940Z,18.17
2018-10-18T10:36:59.629Z,18.26
2018-10-18T10:39:28.230Z,18.25
2018-10-18T10:41:56.928Z,18.39
2018-10-18T10:44:25.460Z,18.65
2018-10-18T10:46:54.040Z,18.49
2018-10-18T10:49:23.125Z,18.49
2018-10-18T10:51:51.915Z,18.59
2018-10-18T10:54:20.496Z,18.53
2018-10-18T10:56:49.240Z,18.47
2018-10-18T10:59:19.217Z,18.73
2018-10-18T11:01:48.004Z,18.55
2018-10-18T11:04:16.650Z,18.71
2018-10-18T11:06:45.349Z,18.74
2018-10-18T11:09:14.013Z,18.94
2018-10-18T11:11:42.941Z,19.15
2018-10-18T11:14:11.620Z,19.22
2018-10-18T11:16:40.221Z,19.47
2018-10-18T11:19:09.032Z,19.35
2018-10-18T11:21:37.644Z,19.32
2018-10-18T11:24:06.367Z,19.39
2018-10-18T11:26:34.946Z,19.51
2018-10-18T11:29:03.615Z,19.47
2018-10-18T11:31:32.161Z,19.63
2018-10-18T11:34:01.016Z,19.80
2018-10-18T11:36:29.724Z,19.72
2018-10-18T11:38:58.270Z,19.73
2018-10-18T11:41:27.455Z,19.65
2018-10-18T11:43:56.012Z,19.95
2018-10-18T11:46:24.665Z,19.48
2018-10-18T11:48:53.805Z,19.65
2018-10-18T11:51:22.523Z,19.58
2018-10-18T11:53:51.133Z,19.96
2018-10-18T11:56:19.713Z,19.97
2018-10-18T11:58:48.320Z,19.90
2018-10-18T12:01:17.112Z,19.98
2018-10-18T12:03:46.007Z,19.71
2018-10-18T12:06:14.605Z,20.08
2018-10-18T12:08:43.161Z,20.10
2018-10-18T12:11:11.963Z,19.83
2018-10-18T12:13:41.322Z,19.98
2018-10-18T12:16:10.297Z,19.95
2018-10-18T12:18:38.953Z,20.26
2018-10-18T12:21:07.685Z,20.29
2018-10-18T12:23:36.348Z,20.52
2018-10-18T12:26:05.337Z,20.52
2018-10-18T12:28:34.253Z,20.61
2018-10-18T12:31:03.064Z,20.65
2018-10-18T12:33:31.956Z,20.54
2018-10-18T12:36:00.522Z,20.23
2018-10-18T12:38:29.317Z,20.12
2018-10-18T12:40:58.285Z,20.23
2018-10-18T12:43:26.793Z,20.49
2018-10-18T12:45:55.465Z,20.34
2018-10-18T12:48:33.847Z,20.02
2018-10-18T12:51:02.317Z,20.32
2018-10-18T12:53:31.032Z,20.34
2018-10-18T12:56:00.035Z,20.50
2018-10-18T12:58:28.643Z,20.52
2018-10-18T13:00:57.294Z,20.53
2018-10-18T13:03:26.057Z,20.20
2018-10-18T13:05:54.679Z,20.44
2018-10-18T13:08:23.230Z,20.41
2018-10-18T13:10:52.069Z,20.22
2018-10-18T13:13:20.652Z,20.00
2018-10-18T13:15:49.334Z,20.08
2018-10-18T13:18:18.849Z,20.02
2018-10-18T13:20:47.448Z,20.12
2018-10-18T13:23:16.113Z,20.11
2018-10-18T13:25:44.876Z,20.02
2018-10-18T13:28:13.557Z,20.03
2018-10-18T13:30:42.209Z,20.02
2018-10-18T13:33:10.997Z,20.00
2018-10-18T13:35:39.647Z,20.08
2018-10-18T13:38:08.320Z,20.22
2018-10-18T13:40:37.276Z,20.20
2018-10-18T13:43:06.048Z,20.27
2018-10-18T13:45:34.693Z,20.20
2018-10-18T13:48:03.737Z,20.33
2018-10-18T13:50:32.376Z,20.40
2018-10-18T13:53:01.369Z,20.44
2018-10-18T13:55:30.140Z,20.43
2018-10-18T13:57:58.722Z,20.15
2018-10-18T14:00:30.253Z,20.21
2018-10-18T14:02:58.959Z,20.08
2018-10-18T14:05:28.088Z,19.95
2018-10-18T14:07:57.312Z,19.79
2018-10-18T14:13:06.078Z,19.79
2018-10-18T14:15:34.863Z,19.54
2018-10-18T14:18:03.498Z,19.57
2018-10-18T14:20:33.179Z,19.46
2018-10-18T14:23:02.017Z,19.42
2018-10-18T14:25:30.628Z,19.31
2018-10-18T14:27:59.209Z,19.23
2018-10-18T14:30:27.968Z,19.33
2018-10-18T14:32:56.640Z,19.29
2018-10-18T14:35:25.364Z,19.27
2018-10-18T14:37:54.072Z,19.31
2018-10-18T14:40:22.702Z,19.14
2018-10-18T14:42:51.440Z,19.19
2018-10-18T14:45:20.111Z,19.18
2018-10-18T14:47:48.830Z,19.23
2018-10-18T14:50:17.644Z,19.22
2018-10-18T14:52:46.285Z,19.13
2018-10-18T14:55:14.964Z,19.16
2018-10-18T14:57:43.652Z,19.23
2018-10-18T15:00:13.425Z,19.21
2018-10-18T15:02:42.222Z,19.31
2018-10-18T15:05:11.850Z,19.15
2018-10-18T15:07:41.052Z,19.11
2018-10-18T15:10:13.181Z,19.01
2018-10-18T15:12:42.290Z,19.05
2018-10-18T15:15:12.304Z,18.97
2018-10-18T15:17:41.112Z,19.00
2018-10-18T15:20:10.765Z,19.13
2018-10-18T15:22:40.741Z,19.03
2018-10-18T15:25:10.492Z,18.96
2018-10-18T15:27:40.232Z,18.76
2018-10-18T15:30:09.835Z,18.74
2018-10-18T15:32:39.192Z,18.74
2018-10-18T15:35:09.309Z,18.66
2018-10-18T15:37:45.843Z,18.71
2018-10-18T15:40:14.468Z,18.67
2018-10-18T15:42:43.126Z,18.59
2018-10-18T15:45:11.858Z,18.72
2018-10-18T15:47:40.558Z,18.56
2018-10-18T15:50:10.856Z,18.49
2018-10-18T15:52:39.417Z,18.45
2018-10-18T15:55:08.657Z,18.40
2018-10-18T15:57:37.305Z,18.24
2018-10-18T16:00:08.107Z,18.37
2018-10-18T16:02:36.742Z,18.24
2018-10-18T16:05:05.892Z,18.12
2018-10-18T16:07:34.662Z,18.16
2018-10-18T16:10:03.514Z,18.06
2018-10-18T16:12:32.159Z,17.96
2018-10-18T16:15:00.853Z,17.96
2018-10-18T16:17:29.462Z,17.83
2018-10-18T16:19:58.081Z,17.93
2018-10-18T16:22:26.719Z,17.80
2018-10-18T16:24:55.285Z,17.82
2018-10-18T16:27:24.813Z,17.74
2018-10-18T16:29:53.396Z,17.69
2018-10-18T16:32:22.013Z,17.75
2018-10-18T16:34:50.724Z,17.67
2018-10-18T16:37:19.537Z,17.59
2018-10-18T16:39:48.061Z,17.50
2018-10-18T16:42:16.701Z,17.65
2018-10-18T16:44:45.413Z,17.65
2018-10-18T16:47:14.061Z,17.49
2018-10-18T16:49:42.703Z,17.16
2018-10-18T16:52:11.592Z,17.13
2018-10-18T16:54:40.336Z,16.94
2018-10-18T16:57:08.945Z,17.03
2018-10-18T16:59:37.682Z,16.84
2018-10-18T17:02:06.682Z,16.63
2018-10-18T17:04:35.379Z,16.43
2018-10-18T17:07:04.124Z,16.42
2018-10-18T17:09:32.668Z,16.45
2018-10-18T17:12:01.444Z,16.46
2018-10-18T17:14:30.249Z,16.29
2018-10-18T17:16:58.877Z,15.95
2018-10-18T17:19:27.490Z,16.14
2018-10-18T17:21:56.138Z,16.16
2018-10-18T17:24:24.703Z,16.20
2018-10-18T17:26:53.308Z,16.31
2018-10-18T17:29:21.993Z,16.41
2018-10-18T17:31:50.556Z,16.38
2018-10-18T17:34:19.607Z,16.53
2018-10-18T17:36:48.162Z,16.41
2018-10-18T17:39:20.342Z,16.18
2018-10-18T17:41:48.992Z,16.27
2018-10-18T17:44:17.638Z,16.15
2018-10-18T17:46:46.285Z,16.09
2018-10-18T17:49:15.017Z,15.93
2018-10-18T17:51:43.591Z,15.60
2018-10-18T17:54:12.169Z,15.22
2018-10-18T17:56:40.820Z,15.03
2018-10-18T17:59:09.423Z,14.80
2018-10-18T18:01:38.025Z,14.71
2018-10-18T18:04:07.224Z,14.85
2018-10-18T18:06:35.921Z,14.86
2018-10-18T18:09:05.066Z,14.79
2018-10-18T18:11:33.913Z,14.31
2018-10-18T18:14:02.756Z,14.20
2018-10-18T18:16:31.780Z,14.22
2018-10-18T18:19:01.012Z,14.17
2018-10-18T18:21:29.574Z,14.11
2018-10-18T18:23:58.172Z,14.12
2018-10-18T18:26:32.657Z,14.09
2018-10-18T18:28:55.585Z,13.92
2018-10-18T18:31:24.418Z,13.94
2018-10-18T18:33:53.233Z,13.81
2018-10-18T18:36:22.190Z,13.68
2018-10-18T18:38:50.846Z,13.71
2018-10-18T18:41:19.624Z,13.66
2018-10-18T18:43:48.228Z,13.62
2018-10-18T18:46:16.792Z,13.63
2018-10-18T18:48:45.571Z,13.65
2018-10-18T18:51:14.220Z,13.44
2018-10-18T18:53:42.740Z,13.34
2018-10-18T18:56:11.603Z,13.42
2018-10-18T18:58:40.189Z,13.41
2018-10-18T19:01:08.904Z,13.46
2018-10-18T19:03:37.727Z,13.58
2018-10-18T19:06:06.380Z,13.70
2018-10-18T19:08:34.949Z,13.58
2018-10-18T19:11:03.799Z,13.54
2018-10-18T19:13:32.428Z,13.52
2018-10-18T19:16:01.100Z,13.45
2018-10-18T19:18:29.909Z,13.56
2018-10-18T19:20:58.528Z,13.13
2018-10-18T19:23:27.292Z,13.13
2018-10-18T19:25:56.049Z,13.03
2018-10-18T19:28:24.669Z,12.93
2018-10-18T19:30:53.657Z,12.88
2018-10-18T19:33:22.249Z,12.93
2018-10-18T19:35:51.047Z,12.80
2018-10-18T19:38:19.786Z,12.85
2018-10-18T19:40:51.360Z,12.88
2018-10-18T19:43:19.932Z,12.66
2018-10-18T19:45:48.704Z,12.59
2018-10-18T19:48:17.750Z,12.43
2018-10-18T19:50:46.417Z,12.96
2018-10-18T19:53:14.997Z,12.66
2018-10-18T19:55:43.941Z,12.54
2018-10-18T19:58:12.554Z,12.46
2018-10-18T20:00:41.132Z,12.51
2018-10-18T20:03:09.849Z,12.47
2018-10-18T20:05:38.372Z,12.26
2018-10-18T20:08:07.002Z,12.27
2018-10-18T20:10:35.712Z,12.06
2018-10-18T20:13:04.489Z,12.10
2018-10-18T20:15:33.064Z,12.03
2018-10-18T20:18:02.089Z,11.99
2018-10-18T20:20:30.672Z,11.85
2018-10-18T20:22:59.268Z,11.64
2018-10-18T20:25:28.038Z,11.61
2018-10-18T20:27:56.645Z,11.47
2018-10-18T20:30:25.261Z,11.60
2018-10-18T20:32:53.945Z,11.53
2018-10-18T20:35:22.574Z,11.57
2018-10-18T20:37:51.104Z,11.44
2018-10-18T20:40:19.905Z,11.52
2018-10-18T20:42:48.656Z,11.45
2018-10-18T20:45:22.594Z,11.41
2018-10-18T20:47:51.316Z,11.36
2018-10-18T20:50:19.784Z,11.35
2018-10-18T20:52:48.521Z,11.29
2018-10-18T20:55:17.078Z,11.35
2018-10-18T20:57:45.709Z,11.33
2018-10-18T21:00:14.446Z,11.29
2018-10-18T21:02:43.088Z,11.22
2018-10-18T21:05:11.692Z,11.23
2018-10-18T21:07:40.413Z,11.19
2018-10-18T21:10:11.889Z,11.05
2018-10-18T21:12:40.440Z,10.98
2018-10-18T21:15:09.131Z,11.09
2018-10-18T21:17:37.605Z,10.92
2018-10-18T21:20:06.617Z,10.92
2018-10-18T21:22:35.444Z,10.93
2018-10-18T21:25:04.344Z,10.86
2018-10-18T21:27:33.192Z,10.87
2018-10-18T21:30:01.848Z,10.85
2018-10-18T21:32:30.424Z,10.76
2018-10-18T21:34:59.287Z,10.78
2018-10-18T21:37:27.838Z,10.84
2018-10-18T21:39:56.482Z,10.88
2018-10-18T21:42:25.172Z,10.86
2018-10-18T21:44:54.485Z,10.87
2018-10-18T21:47:23.592Z,10.96
2018-10-18T21:49:52.485Z,10.95
2018-10-18T21:52:21.133Z,10.89
2018-10-18T21:54:49.736Z,10.89
2018-10-18T21:57:18.477Z,10.89
2018-10-18T21:59:47.166Z,10.90
2018-10-18T22:02:15.748Z,10.88
2018-10-18T22:04:44.484Z,10.94
2018-10-18T22:07:13.073Z,10.94
2018-10-18T22:09:41.654Z,11.02
2018-10-18T22:12:10.290Z,10.89
2018-10-18T22:14:38.906Z,10.98
2018-10-18T22:17:07.516Z,10.99
2018-10-18T22:19:36.370Z,10.94
2018-10-18T22:22:05.124Z,11.01
2018-10-18T22:24:33.728Z,11.01
2018-10-18T22:27:02.554Z,11.21
2018-10-18T22:29:31.120Z,11.26
2018-10-18T22:31:59.702Z,11.30
2018-10-18T22:34:28.441Z,11.39
2018-10-18T22:36:56.997Z,11.45
2018-10-18T22:39:25.625Z,11.34
2018-10-18T22:41:54.448Z,11.57
2018-10-18T22:44:22.984Z,11.54
2018-10-18T22:46:51.600Z,11.51
2018-10-18T22:49:20.429Z,11.58
2018-10-18T22:51:48.980Z,11.57
2018-10-18T22:54:17.541Z,11.99
2018-10-18T22:56:46.230Z,11.85
2018-10-18T22:59:14.813Z,11.93
2018-10-18T23:01:43.596Z,12.15
2018-10-18T23:04:12.160Z,12.44
2018-10-18T23:06:40.776Z,12.74
2018-10-18T23:09:11.638Z,12.63
2018-10-18T23:11:40.257Z,12.33
2018-10-18T23:14:09.849Z,12.34
2018-10-18T23:16:39.179Z,12.56
2018-10-18T23:19:08.857Z,12.46
2018-10-18T23:21:37.409Z,12.37
2018-10-18T23:24:06.341Z,12.41
2018-10-18T23:26:34.921Z,12.53
2018-10-18T23:29:03.494Z,12.40
2018-10-18T23:31:32.081Z,12.48
2018-10-18T23:34:00.649Z,12.35
2018-10-18T23:36:29.256Z,12.29
2018-10-18T23:38:57.902Z,12.33
2018-10-18T23:41:26.514Z,12.40
2018-10-18T23:43:55.201Z,12.37
2018-10-18T23:46:23.841Z,12.40
2018-10-18T23:48:52.488Z,12.52
2018-10-18T23:51:21.025Z,12.37
2018-10-18T23:53:49.685Z,12.31
2018-10-18T23:56:18.446Z,12.68
2018-10-18T23:58:47.049Z,12.33
